KRSL

Russell Municipal Airport

Russell, Kansas, USA
KRSL 221415Z 2214/2312 35022G30KT 4SM -FZDZSN SCT006 BKN010 FM221700 34024G32KT 2SM -SN OVC012 TEMPO 2218/2222 1/2SM SN OVC008 FM230000 34022G30KT P6SM OVC020 FM230500 33015G23KT P6SM SCT045
Issued Valid From Valid To
Jan-22 @ 14:15 UTC
(3 hours ago)
Jan-22 @ 14:00 UTC
(3 hours ago)
Jan-23 @ 12:00 UTC
(in 19 hours)
Jan-22 @ 14:00 to Jan-22 @ 17:00
KRSL 221415Z 2214/2312 35022G30KT 4SM -FZDZSN SCT006 BKN010
Wind Visibility Clouds Conditions
350° at 22 knots
 Gusting to 30 knots
4 miles
  • Scattered at 600' AGL
  • Broken at 1,000' AGL
  • Light Freezing
  • Light Drizzle
  • Snow
From Jan-22 @ 17:00 to Jan-23 @ 00:00
FM221700 34024G32KT 2SM -SN OVC012
Wind Visibility Clouds Conditions
340° at 24 knots
 Gusting to 32 knots
2 miles
  • Overcast at 1,200' AGL
  • Light Snow
Temporary Jan-22 @ 18:00 to Jan-22 @ 22:00
TEMPO 2218/2222 1/2SM SN OVC008
Visibility Clouds Conditions
1/2 miles
  • Overcast at 800' AGL
  • Snow
From Jan-23 @ 00:00 to Jan-23 @ 05:00
FM230000 34022G30KT P6SM OVC020
Wind Visibility Clouds
340° at 22 knots
 Gusting to 30 knots
Greater than 6 miles
  • Overcast at 2,000' AGL
From Jan-23 @ 05:00 to Jan-23 @ 12:00
FM230500 33015G23KT P6SM SCT045
Wind Visibility Clouds
330° at 15 knots
 Gusting to 23 knots
Greater than 6 miles
  • Scattered at 4,500' AGL
KRSL 221415Z 2214/2312 35022G30KT 4SM -FZDZSN SCT006 BKN010 FM221700 34024G32KT 2SM -SN OVC012 TEMPO 2218/2222 1/2SM SN OVC008 FM230000 34022G30KT P6SM OVC020 FM230500 33015G23KT P6SM SCT045
Issued Jan-22 @ 14:15 UTC
(3 hours ago)
Valid From Jan-22 @ 14:00 UTC
(3 hours ago)
Valid To Jan-23 @ 12:00 UTC
(in 19 hours)
Jan-22 @ 14:00 - Jan-22 @ 17:00
Wind Visibility
350° at 22 knots
 Gusting to 30 knots
4 miles
Clouds
  • Scattered at 600' AGL
  • Broken at 1,000' AGL
Conditions
  • Light Freezing
  • Light Drizzle
  • Snow
From Jan-22 @ 17:00 - Jan-23 @ 00:00
Wind Visibility
340° at 24 knots
 Gusting to 32 knots
2 miles
Clouds
  • Overcast at 1,200' AGL
Conditions
  • Light Snow
Temporary Jan-22 @ 18:00 - Jan-22 @ 22:00
Clouds
  • Overcast at 800' AGL
Conditions
  • Snow
From Jan-23 @ 00:00 - Jan-23 @ 05:00
Wind Visibility
340° at 22 knots
 Gusting to 30 knots
Greater than 6 miles
Clouds
  • Overcast at 2,000' AGL
From Jan-23 @ 05:00 - Jan-23 @ 12:00
Wind Visibility
330° at 15 knots
 Gusting to 23 knots
Greater than 6 miles
Clouds
  • Scattered at 4,500' AGL